Time;durP1;ratioP1;P1;durP2;ratioP2;P2;SDS_P1;SDS_P2;PMS_P1;PMS_P2;Temp;Humidity;BMP_temperature;BMP_pressure;BME280_temperature;BME280_humidity;BME280_pressure;Samples;Min_cycle;Max_cycle;Signal;HPM_P1;HPM_P2
2022/03/18 00:02:04;;;;;;;12.50;7.13;;;;;;;;;;5008259;28;20556;-67
2022/03/18 00:04:29;;;;;;;12.77;7.30;;;;;;;;;;5006713;28;20209;-68
2022/03/18 00:06:54;;;;;;;12.20;6.87;;;;;;;;;;5018137;28;20197;-68
2022/03/18 00:09:20;;;;;;;12.13;7.50;;;;;;;;;;5032904;28;20206;-68
2022/03/18 00:11:45;;;;;;;12.73;7.43;;;;;;;;;;5033861;28;20248;-68
2022/03/18 00:14:10;;;;;;;14.67;8.00;;;;;;;;;;5005046;28;20183;-68
2022/03/18 00:16:36;;;;;;;11.17;6.90;;;;;;;;;;5019511;28;20182;-68
2022/03/18 00:19:01;;;;;;;10.50;6.90;;;;;;;;;;5014157;28;20235;-68
2022/03/18 00:21:27;;;;;;;11.70;8.43;;;;;;;;;;5026481;28;20201;-70
2022/03/18 00:23:52;;;;;;;12.33;7.83;;;;;;;;;;5032597;28;20183;-68
2022/03/18 00:26:17;;;;;;;16.30;8.07;;;;;;;;;;5022945;28;20182;-68
2022/03/18 00:28:43;;;;;;;9.43;7.43;;;;;;;;;;5026226;28;20628;-68
2022/03/18 00:31:08;;;;;;;14.07;7.57;;;;;;;;;;5025734;28;20268;-68
2022/03/18 00:33:34;;;;;;;10.27;7.10;;;;;;;;;;5031189;28;20642;-68
2022/03/18 00:35:59;;;;;;;17.53;8.50;;;;;;;;;;5029106;28;20644;-68
2022/03/18 00:38:24;;;;;;;11.90;7.90;;;;;;;;;;5031271;28;20178;-67
2022/03/18 00:40:50;;;;;;;11.87;7.70;;;;;;;;;;5031156;28;20680;-68
2022/03/18 00:43:16;;;;;;;12.60;7.43;;;;;;;;;;5030613;28;20175;-68
2022/03/18 00:45:41;;;;;;;13.93;8.40;;;;;;;;;;5031763;28;20555;-68
2022/03/18 00:53:34;;;;;;;16.03;8.23;;;;;;;;;;5028008;28;20189;-68
2022/03/18 00:55:59;;;;;;;11.63;7.43;;;;;;;;;;5030036;28;20183;-68
2022/03/18 00:58:24;;;;;;;17.67;8.90;;;;;;;;;;5025179;28;20187;-68
2022/03/18 01:00:49;;;;;;;20.20;9.30;;;;;;;;;;5030092;28;20271;-68
2022/03/18 01:03:15;;;;;;;12.70;8.03;;;;;;;;;;5027986;28;20189;-68
2022/03/18 01:05:41;;;;;;;10.67;7.87;;;;;;;;;;5028153;28;20640;-68
2022/03/18 01:08:06;;;;;;;15.13;8.60;;;;;;;;;;5028859;28;20536;-67
2022/03/18 01:10:31;;;;;;;16.93;7.73;;;;;;;;;;5037733;28;20194;-68
2022/03/18 01:12:57;;;;;;;12.13;7.37;;;;;;;;;;5031595;28;20222;-67
2022/03/18 01:15:22;;;;;;;15.47;8.07;;;;;;;;;;5026340;28;20187;-67
2022/03/18 01:17:47;;;;;;;14.27;8.13;;;;;;;;;;5029587;28;20312;-68
2022/03/18 01:20:12;;;;;;;20.40;8.40;;;;;;;;;;5032420;28;20199;-67
2022/03/18 01:22:38;;;;;;;15.10;9.07;;;;;;;;;;5024781;28;20515;-68
2022/03/18 01:25:03;;;;;;;12.97;9.00;;;;;;;;;;5031773;28;20544;-66
2022/03/18 01:27:28;;;;;;;13.23;8.47;;;;;;;;;;5021350;28;20194;-67
2022/03/18 01:29:53;;;;;;;16.50;8.63;;;;;;;;;;5029714;28;20750;-68
2022/03/18 01:32:19;;;;;;;16.33;9.20;;;;;;;;;;5028790;28;20216;-67
2022/03/18 01:34:44;;;;;;;16.83;8.40;;;;;;;;;;5030715;28;20177;-67
2022/03/18 01:37:09;;;;;;;11.30;8.07;;;;;;;;;;5029280;28;20601;-67
2022/03/18 01:39:34;;;;;;;16.87;8.43;;;;;;;;;;5030589;28;20209;-67
2022/03/18 01:41:59;;;;;;;14.30;8.20;;;;;;;;;;5030705;28;20185;-67
2022/03/18 01:44:25;;;;;;;11.47;8.27;;;;;;;;;;5031300;28;20184;-67
2022/03/18 01:46:50;;;;;;;12.03;8.37;;;;;;;;;;5031134;28;20182;-67
2022/03/18 01:49:15;;;;;;;13.53;8.97;;;;;;;;;;5029921;28;20591;-68
2022/03/18 01:51:41;;;;;;;14.80;8.70;;;;;;;;;;5030197;28;20217;-67
2022/03/18 01:56:50;;;;;;;12.30;8.30;;;;;;;;;;5024699;28;20243;-70
2022/03/18 01:59:16;;;;;;;16.03;8.87;;;;;;;;;;5028050;28;20210;-67
2022/03/18 02:01:41;;;;;;;13.40;8.40;;;;;;;;;;5013306;28;20178;-68
2022/03/18 02:04:06;;;;;;;13.50;8.63;;;;;;;;;;5021901;28;20175;-68
2022/03/18 02:06:31;;;;;;;13.03;8.43;;;;;;;;;;5030534;28;20277;-68
2022/03/18 02:08:56;;;;;;;15.87;8.60;;;;;;;;;;5026227;28;20187;-70
2022/03/18 02:11:22;;;;;;;15.90;9.43;;;;;;;;;;5012380;28;20198;-68
2022/03/18 02:13:51;;;;;;;12.10;8.10;;;;;;;;;;5027680;28;20178;-68
2022/03/18 02:16:16;;;;;;;12.83;8.03;;;;;;;;;;5030510;28;20167;-68
2022/03/18 02:18:42;;;;;;;12.50;7.83;;;;;;;;;;5027598;28;20205;-68
2022/03/18 02:21:08;;;;;;;13.43;8.97;;;;;;;;;;5030352;28;20605;-68
2022/03/18 02:23:33;;;;;;;14.47;7.93;;;;;;;;;;5010553;28;20645;-68
2022/03/18 02:25:58;;;;;;;12.17;8.50;;;;;;;;;;5030590;28;20197;-68
2022/03/18 02:28:24;;;;;;;10.80;7.93;;;;;;;;;;5019382;28;20268;-68
2022/03/18 02:30:49;;;;;;;13.37;8.27;;;;;;;;;;5039617;22;20237;-65
2022/03/18 02:33:14;;;;;;;14.40;8.40;;;;;;;;;;5028005;28;20279;-65
2022/03/18 02:35:39;;;;;;;14.73;8.37;;;;;;;;;;5028727;28;20241;-66
2022/03/18 02:38:05;;;;;;;14.90;8.40;;;;;;;;;;5028935;28;20557;-65
2022/03/18 02:40:30;;;;;;;12.73;8.03;;;;;;;;;;4997785;28;20683;-65
2022/03/18 02:42:55;;;;;;;13.93;8.70;;;;;;;;;;5022565;28;20197;-65
2022/03/18 02:45:21;;;;;;;14.87;8.37;;;;;;;;;;5022545;28;20604;-68
2022/03/18 02:47:46;;;;;;;13.87;8.53;;;;;;;;;;5021633;28;20326;-66
2022/03/18 02:50:11;;;;;;;14.10;9.10;;;;;;;;;;5028437;28;20225;-68
2022/03/18 02:52:36;;;;;;;17.10;9.07;;;;;;;;;;5021903;28;20210;-65
2022/03/18 02:55:02;;;;;;;13.77;10.33;;;;;;;;;;5035126;28;20183;-65
2022/03/18 02:57:27;;;;;;;16.60;9.80;;;;;;;;;;5031238;28;20185;-65
2022/03/18 02:59:53;;;;;;;12.17;8.63;;;;;;;;;;5032328;28;20769;-67
2022/03/18 03:02:18;;;;;;;12.20;8.93;;;;;;;;;;5027689;28;20282;-67
2022/03/18 03:10:14;;;;;;;12.60;8.63;;;;;;;;;;5024128;28;20757;-67
2022/03/18 03:12:40;;;;;;;14.27;9.13;;;;;;;;;;5027025;28;20656;-67
2022/03/18 03:15:05;;;;;;;16.77;9.13;;;;;;;;;;5028510;28;20560;-66
2022/03/18 03:17:30;;;;;;;13.57;8.50;;;;;;;;;;5004372;28;20182;-66
2022/03/18 03:19:56;;;;;;;14.73;8.90;;;;;;;;;;5033384;28;20218;-65
2022/03/18 03:22:21;;;;;;;12.37;8.07;;;;;;;;;;5009956;28;20766;-66
2022/03/18 03:24:47;;;;;;;14.40;9.47;;;;;;;;;;5027514;28;20193;-65
2022/03/18 03:27:12;;;;;;;13.90;9.23;;;;;;;;;;5030436;28;20198;-65
2022/03/18 03:29:37;;;;;;;11.60;8.30;;;;;;;;;;5027366;28;20198;-64
2022/03/18 03:32:03;;;;;;;16.50;8.53;;;;;;;;;;5026487;28;20224;-65
2022/03/18 03:34:29;;;;;;;15.63;8.93;;;;;;;;;;5030844;28;20166;-65
2022/03/18 03:36:54;;;;;;;12.80;9.13;;;;;;;;;;5032542;28;20189;-65
2022/03/18 03:39:19;;;;;;;10.40;7.70;;;;;;;;;;5030699;28;20190;-65
2022/03/18 03:41:44;;;;;;;13.97;8.70;;;;;;;;;;5022042;28;20290;-66
2022/03/18 03:44:10;;;;;;;14.80;8.40;;;;;;;;;;5025337;28;20259;-66
2022/03/18 03:46:35;;;;;;;15.50;8.97;;;;;;;;;;5032206;28;20221;-65
2022/03/18 03:49:00;;;;;;;12.80;8.80;;;;;;;;;;5030127;28;20186;-65
2022/03/18 03:51:26;;;;;;;13.90;8.87;;;;;;;;;;5032085;28;20218;-66
2022/03/18 03:53:51;;;;;;;14.97;9.70;;;;;;;;;;5031035;28;20182;-66
2022/03/18 03:56:16;;;;;;;16.50;9.30;;;;;;;;;;5032676;28;20221;-66
2022/03/18 03:58:41;;;;;;;15.67;10.17;;;;;;;;;;5029647;28;20675;-65
2022/03/18 04:01:06;;;;;;;12.97;8.70;;;;;;;;;;5030460;28;20256;-65
2022/03/18 04:03:32;;;;;;;17.23;9.03;;;;;;;;;;5031156;28;20217;-66
2022/03/18 04:05:57;;;;;;;13.37;8.40;;;;;;;;;;5014534;28;20182;-66
2022/03/18 04:08:23;;;;;;;15.63;9.83;;;;;;;;;;5035376;28;20687;-67
2022/03/18 04:10:48;;;;;;;13.47;8.40;;;;;;;;;;5030642;28;20198;-67
2022/03/18 04:13:13;;;;;;;14.70;10.07;;;;;;;;;;5033027;28;20206;-66
2022/03/18 04:15:38;;;;;;;20.73;9.23;;;;;;;;;;5030139;28;20562;-66
2022/03/18 04:18:03;;;;;;;15.40;8.47;;;;;;;;;;5028796;28;20190;-67
2022/03/18 04:20:30;;;;;;;16.20;10.43;;;;;;;;;;5031513;28;20205;-66
2022/03/18 04:22:55;;;;;;;16.00;8.90;;;;;;;;;;5014362;28;20285;-66
2022/03/18 04:25:20;;;;;;;29.77;10.17;;;;;;;;;;5013647;28;20353;-66
2022/03/18 04:27:46;;;;;;;17.87;8.97;;;;;;;;;;5030581;28;20206;-66
2022/03/18 04:30:12;;;;;;;16.40;9.57;;;;;;;;;;5030512;28;20222;-66
2022/03/18 04:32:37;;;;;;;17.97;8.80;;;;;;;;;;5029317;28;20348;-65
2022/03/18 04:35:03;;;;;;;14.20;8.10;;;;;;;;;;5013841;28;20280;-66
2022/03/18 04:37:29;;;;;;;18.27;8.40;;;;;;;;;;5013724;28;20321;-65
2022/03/18 04:39:54;;;;;;;11.43;8.37;;;;;;;;;;5036664;28;20706;-66
2022/03/18 04:42:19;;;;;;;12.53;8.63;;;;;;;;;;5021293;28;20203;-66
2022/03/18 04:44:44;;;;;;;15.40;8.30;;;;;;;;;;5029481;28;20185;-66
2022/03/18 04:47:10;;;;;;;17.53;8.80;;;;;;;;;;5030921;28;20178;-66
2022/03/18 04:49:35;;;;;;;15.73;8.47;;;;;;;;;;5030361;28;20188;-66
2022/03/18 04:52:01;;;;;;;13.23;8.97;;;;;;;;;;5029150;28;20301;-64
2022/03/18 04:54:26;;;;;;;13.63;8.63;;;;;;;;;;5028831;28;20186;-66
2022/03/18 04:59:35;;;;;;;17.17;9.67;;;;;;;;;;5023523;28;20185;-66
2022/03/18 05:02:00;;;;;;;15.77;8.77;;;;;;;;;;5031297;28;20186;-66
2022/03/18 05:04:25;;;;;;;15.10;10.07;;;;;;;;;;5029921;28;20178;-66
2022/03/18 05:06:50;;;;;;;15.63;9.37;;;;;;;;;;5013259;28;20193;-65
2022/03/18 05:09:16;;;;;;;15.43;9.70;;;;;;;;;;5028495;28;20182;-66
2022/03/18 05:11:41;;;;;;;21.17;10.20;;;;;;;;;;5029651;28;20202;-66
2022/03/18 05:14:06;;;;;;;14.63;9.80;;;;;;;;;;5029405;28;20288;-64
2022/03/18 05:16:32;;;;;;;18.03;9.90;;;;;;;;;;5030888;28;20170;-66
2022/03/18 05:18:57;;;;;;;20.33;10.47;;;;;;;;;;5029881;28;20192;-66
2022/03/18 05:21:22;;;;;;;17.23;10.53;;;;;;;;;;5029785;28;20198;-67
2022/03/18 05:23:47;;;;;;;14.77;10.10;;;;;;;;;;5028782;28;20240;-66
2022/03/18 05:26:13;;;;;;;15.00;10.60;;;;;;;;;;5030784;28;20349;-67
2022/03/18 05:28:38;;;;;;;17.27;9.33;;;;;;;;;;5029843;28;20186;-65
2022/03/18 05:31:03;;;;;;;20.60;9.40;;;;;;;;;;5028152;28;20202;-67
2022/03/18 05:33:29;;;;;;;13.07;9.53;;;;;;;;;;5027954;28;20353;-66
2022/03/18 05:35:54;;;;;;;15.53;9.50;;;;;;;;;;5029563;28;20542;-66
2022/03/18 05:38:19;;;;;;;16.70;8.90;;;;;;;;;;5030599;28;20174;-66
2022/03/18 05:40:44;;;;;;;16.33;9.40;;;;;;;;;;5029223;28;20194;-66
2022/03/18 05:43:10;;;;;;;16.47;9.50;;;;;;;;;;5021951;28;20170;-66
2022/03/18 05:45:35;;;;;;;16.40;9.23;;;;;;;;;;5027454;28;20178;-66
2022/03/18 05:48:00;;;;;;;16.50;9.60;;;;;;;;;;5023008;28;20204;-65
2022/03/18 05:50:26;;;;;;;15.13;9.60;;;;;;;;;;5025385;28;20301;-66
2022/03/18 05:52:51;;;;;;;19.33;11.07;;;;;;;;;;5029216;28;20209;-68
2022/03/18 05:55:16;;;;;;;16.10;11.23;;;;;;;;;;5025609;28;20195;-66
2022/03/18 05:57:42;;;;;;;18.90;10.40;;;;;;;;;;5021374;28;20320;-66
2022/03/18 06:00:07;;;;;;;20.07;11.97;;;;;;;;;;5018657;28;20211;-64
2022/03/18 06:02:33;;;;;;;18.33;11.87;;;;;;;;;;5022590;28;20487;-65
2022/03/18 06:04:58;;;;;;;16.33;10.27;;;;;;;;;;5023726;28;20182;-66
2022/03/18 06:07:24;;;;;;;18.57;10.57;;;;;;;;;;5026092;28;20194;-66
2022/03/18 06:12:33;;;;;;;19.90;12.33;;;;;;;;;;5027873;28;20213;-65
2022/03/18 06:14:58;;;;;;;20.63;11.80;;;;;;;;;;5030955;28;20182;-66
2022/03/18 06:17:23;;;;;;;21.93;12.33;;;;;;;;;;5006748;28;20175;-65
2022/03/18 06:19:48;;;;;;;22.27;11.97;;;;;;;;;;5025966;28;20186;-66
2022/03/18 06:22:13;;;;;;;20.47;12.60;;;;;;;;;;5028103;28;20679;-65
2022/03/18 06:24:38;;;;;;;19.73;12.90;;;;;;;;;;5033289;28;20190;-65
2022/03/18 06:27:04;;;;;;;21.17;12.53;;;;;;;;;;5028613;28;20186;-65
2022/03/18 06:29:29;;;;;;;20.77;12.83;;;;;;;;;;5027591;28;20183;-66
2022/03/18 06:31:55;;;;;;;26.60;14.13;;;;;;;;;;5028192;28;20591;-65
2022/03/18 06:34:20;;;;;;;28.07;13.70;;;;;;;;;;5028053;28;20175;-66
2022/03/18 06:36:46;;;;;;;24.70;15.07;;;;;;;;;;5027558;28;20187;-66
2022/03/18 06:39:11;;;;;;;25.80;16.70;;;;;;;;;;5022397;28;20187;-65
2022/03/18 06:41:36;;;;;;;31.53;16.03;;;;;;;;;;5028816;28;20285;-66
2022/03/18 06:44:02;;;;;;;25.43;15.67;;;;;;;;;;5029392;28;20228;-65
2022/03/18 06:46:28;;;;;;;29.37;19.57;;;;;;;;;;5028707;28;20189;-68
2022/03/18 06:48:53;;;;;;;26.97;18.13;;;;;;;;;;5029204;28;20337;-64
2022/03/18 06:51:18;;;;;;;29.50;18.17;;;;;;;;;;5027343;28;20555;-65
2022/03/18 06:53:44;;;;;;;28.87;18.83;;;;;;;;;;5010338;28;20189;-65
2022/03/18 06:56:09;;;;;;;32.13;19.47;;;;;;;;;;5029472;28;20202;-66
2022/03/18 06:58:34;;;;;;;29.33;18.90;;;;;;;;;;5028170;28;20186;-65
2022/03/18 07:01:00;;;;;;;36.17;21.90;;;;;;;;;;5010670;28;20202;-66
2022/03/18 07:03:25;;;;;;;36.40;21.90;;;;;;;;;;5017414;28;20195;-66
2022/03/18 07:05:50;;;;;;;31.27;20.40;;;;;;;;;;5026699;28;20194;-65
2022/03/18 07:08:15;;;;;;;26.93;19.57;;;;;;;;;;5027457;28;20607;-66
2022/03/18 07:10:41;;;;;;;29.80;20.63;;;;;;;;;;5027370;28;20294;-68
2022/03/18 07:13:06;;;;;;;29.83;19.67;;;;;;;;;;5025191;28;20206;-66
2022/03/18 07:15:31;;;;;;;35.53;22.17;;;;;;;;;;5027779;28;20555;-67
2022/03/18 07:18:00;;;;;;;30.60;20.37;;;;;;;;;;5024323;28;20186;-68
2022/03/18 07:20:26;;;;;;;28.77;20.10;;;;;;;;;;5014773;28;20194;-67
2022/03/18 07:23:04;;;;;;;26.83;18.40;;;;;;;;;;5022244;28;20269;-68
2022/03/18 07:25:30;;;;;;;27.83;18.30;;;;;;;;;;5026727;28;20647;-67
2022/03/18 07:27:55;;;;;;;24.87;14.80;;;;;;;;;;5028003;28;20189;-66
2022/03/18 07:30:20;;;;;;;21.23;14.80;;;;;;;;;;5027149;28;20304;-65
2022/03/18 07:32:46;;;;;;;23.37;14.00;;;;;;;;;;5024322;28;20198;-65
2022/03/18 07:35:11;;;;;;;18.53;13.30;;;;;;;;;;5027593;28;20182;-67
2022/03/18 07:37:36;;;;;;;16.70;12.83;;;;;;;;;;5025683;28;20614;-67
2022/03/18 07:40:02;;;;;;;18.57;12.77;;;;;;;;;;5023146;28;20233;-67
2022/03/18 07:42:27;;;;;;;19.03;11.57;;;;;;;;;;5028649;28;20187;-66
2022/03/18 07:44:52;;;;;;;19.90;11.53;;;;;;;;;;5028664;28;20607;-67
2022/03/18 07:47:18;;;;;;;16.37;10.97;;;;;;;;;;5033883;28;20186;-67
2022/03/18 07:49:43;;;;;;;17.87;11.73;;;;;;;;;;5037743;28;20347;-67
2022/03/18 07:52:08;;;;;;;16.40;10.03;;;;;;;;;;5037369;28;20195;-65
2022/03/18 07:54:33;;;;;;;16.70;10.90;;;;;;;;;;5035953;28;20177;-66
2022/03/18 07:56:58;;;;;;;15.37;10.00;;;;;;;;;;5038916;28;20199;-66
2022/03/18 07:59:23;;;;;;;19.50;11.07;;;;;;;;;;5029531;28;20186;-66
2022/03/18 08:01:49;;;;;;;17.67;9.77;;;;;;;;;;5007606;28;20187;-66
2022/03/18 08:04:14;;;;;;;12.47;9.53;;;;;;;;;;5024908;28;20264;-66
2022/03/18 08:06:39;;;;;;;12.03;8.90;;;;;;;;;;5021802;28;20174;-65
2022/03/18 08:09:05;;;;;;;12.30;8.13;;;;;;;;;;5024792;28;20190;-66
2022/03/18 08:11:30;;;;;;;14.53;8.57;;;;;;;;;;5026707;28;20206;-66
2022/03/18 08:13:55;;;;;;;11.67;8.17;;;;;;;;;;5027540;28;20210;-65
2022/03/18 08:16:22;;;;;;;11.97;8.57;;;;;;;;;;5023774;28;20175;-66
2022/03/18 08:18:47;;;;;;;12.80;8.50;;;;;;;;;;5026346;28;20186;-65
2022/03/18 08:21:14;;;;;;;13.97;8.27;;;;;;;;;;5037607;28;20369;-65
2022/03/18 08:23:39;;;;;;;10.93;8.00;;;;;;;;;;5030049;28;20209;-66
2022/03/18 08:26:05;;;;;;;11.73;8.67;;;;;;;;;;5027735;28;20186;-66
2022/03/18 08:28:30;;;;;;;9.27;7.80;;;;;;;;;;5030549;28;20194;-66
2022/03/18 08:30:55;;;;;;;14.18;8.20;;;;;;;;;;5054226;22;20702;-69
2022/03/18 08:33:23;;;;;;;11.83;7.47;;;;;;;;;;5048560;28;20244;-69
2022/03/18 08:35:48;;;;;;;9.77;7.20;;;;;;;;;;5048043;28;20403;-69
2022/03/18 08:38:14;;;;;;;12.35;7.03;;;;;;;;;;5043345;28;20384;-69
2022/03/18 08:40:39;;;;;;;11.27;7.00;;;;;;;;;;5043813;28;20197;-70
2022/03/18 08:43:11;;;;;;;8.93;5.65;;;;;;;;;;5044642;28;20188;-70
2022/03/18 08:45:36;;;;;;;8.38;5.88;;;;;;;;;;5045584;28;20189;-69
2022/03/18 08:48:02;;;;;;;7.95;5.93;;;;;;;;;;5047948;28;20201;-70
2022/03/18 08:50:27;;;;;;;13.80;6.05;;;;;;;;;;5052803;28;20204;-69
2022/03/18 08:52:54;;;;;;;9.70;5.90;;;;;;;;;;5050095;28;20271;-69
2022/03/18 08:55:20;;;;;;;12.10;6.03;;;;;;;;;;5049991;28;20178;-69
2022/03/18 08:57:45;;;;;;;10.88;6.07;;;;;;;;;;5047294;28;20188;-67
2022/03/18 09:00:13;;;;;;;10.73;6.10;;;;;;;;;;5047306;28;20327;-70
2022/03/18 09:02:38;;;;;;;10.77;5.70;;;;;;;;;;5032629;28;20314;-69
2022/03/18 09:05:04;;;;;;;11.05;6.00;;;;;;;;;;5029706;28;20272;-67
2022/03/18 09:07:30;;;;;;;12.15;6.00;;;;;;;;;;5051389;28;20208;-67
2022/03/18 09:09:55;;;;;;;8.27;6.13;;;;;;;;;;5047881;28;20205;-67
2022/03/18 09:12:20;;;;;;;14.27;5.88;;;;;;;;;;5053217;28;20259;-67
2022/03/18 09:14:45;;;;;;;10.13;6.17;;;;;;;;;;5047945;28;20189;-67
2022/03/18 09:17:11;;;;;;;9.77;5.57;;;;;;;;;;5048836;28;20427;-68
2022/03/18 09:19:37;;;;;;;10.05;5.20;;;;;;;;;;5050657;28;20542;-67
2022/03/18 09:22:03;;;;;;;12.52;5.13;;;;;;;;;;5050243;28;20639;-68
2022/03/18 09:24:30;;;;;;;11.35;5.68;;;;;;;;;;5050522;28;20231;-68
2022/03/18 09:26:55;;;;;;;12.43;6.97;;;;;;;;;;5034736;28;20181;-68
2022/03/18 09:29:24;;;;;;;9.20;5.00;;;;;;;;;;5046149;28;20184;-68
2022/03/18 09:31:50;;;;;;;9.15;6.13;;;;;;;;;;5047384;28;20475;-68
2022/03/18 09:34:15;;;;;;;14.60;7.13;;;;;;;;;;5050048;28;20379;-68
2022/03/18 09:36:41;;;;;;;10.57;5.40;;;;;;;;;;5053305;28;20429;-68
2022/03/18 09:39:06;;;;;;;7.63;5.28;;;;;;;;;;5051259;28;20595;-68
2022/03/18 09:41:31;;;;;;;7.70;4.93;;;;;;;;;;5052015;28;20197;-68
2022/03/18 09:43:56;;;;;;;9.93;5.07;;;;;;;;;;5048896;28;20186;-68
2022/03/18 09:46:21;;;;;;;8.38;5.32;;;;;;;;;;5053725;28;20905;-68
2022/03/18 09:48:47;;;;;;;10.68;5.50;;;;;;;;;;5046303;28;20173;-68
2022/03/18 09:51:12;;;;;;;8.57;5.30;;;;;;;;;;5053564;28;20292;-68
2022/03/18 09:53:37;;;;;;;9.93;5.10;;;;;;;;;;5047560;28;20206;-68
2022/03/18 09:56:03;;;;;;;11.85;5.75;;;;;;;;;;5054078;28;20228;-68
2022/03/18 09:58:29;;;;;;;7.97;5.70;;;;;;;;;;5049318;28;20193;-68
2022/03/18 10:00:58;;;;;;;12.75;6.03;;;;;;;;;;5032895;28;20769;-68
2022/03/18 10:03:23;;;;;;;14.35;5.63;;;;;;;;;;5053011;28;20220;-68
2022/03/18 10:05:58;;;;;;;8.38;5.65;;;;;;;;;;5048888;28;20189;-68
2022/03/18 10:08:23;;;;;;;11.75;6.30;;;;;;;;;;5053447;28;20264;-67
2022/03/18 10:10:48;;;;;;;12.15;6.10;;;;;;;;;;5051693;28;20232;-68
2022/03/18 10:13:16;;;;;;;14.20;5.70;;;;;;;;;;5051851;28;20220;-68
2022/03/18 10:15:41;;;;;;;9.35;5.50;;;;;;;;;;5029688;28;20583;-68
2022/03/18 10:18:09;;;;;;;14.05;5.05;;;;;;;;;;5043604;28;20190;-67
2022/03/18 10:20:36;;;;;;;8.20;6.10;;;;;;;;;;5046776;28;20730;-67
2022/03/18 10:23:16;;;;;;;9.60;5.38;;;;;;;;;;5050464;28;20230;-67
2022/03/18 10:25:52;;;;;;;9.20;5.45;;;;;;;;;;5048988;28;20188;-67
2022/03/18 10:28:30;;;;;;;8.43;5.03;;;;;;;;;;5048270;28;20677;-67
2022/03/18 10:31:08;;;;;;;10.10;5.40;;;;;;;;;;5046945;28;20218;-67
2022/03/18 10:39:25;;;;;;;9.15;5.70;;;;;;;;;;5048071;28;20231;-68
2022/03/18 10:41:51;;;;;;;9.77;5.95;;;;;;;;;;5039633;28;20212;-68
2022/03/18 10:44:17;;;;;;;10.10;5.97;;;;;;;;;;5037063;28;20186;-68
2022/03/18 10:46:42;;;;;;;10.57;5.53;;;;;;;;;;5044550;28;20188;-67
2022/03/18 10:49:07;;;;;;;10.50;6.25;;;;;;;;;;5047721;28;20185;-67
2022/03/18 10:51:34;;;;;;;11.35;5.47;;;;;;;;;;5047046;28;20193;-67
2022/03/18 10:53:59;;;;;;;11.27;4.72;;;;;;;;;;5048877;28;20209;-67
2022/03/18 10:56:24;;;;;;;12.13;4.82;;;;;;;;;;5044608;28;20212;-67
2022/03/18 10:58:50;;;;;;;10.07;4.97;;;;;;;;;;5048070;28;20269;-68
2022/03/18 11:01:15;;;;;;;8.07;4.63;;;;;;;;;;5044618;28;20198;-68
2022/03/18 11:03:41;;;;;;;6.78;3.70;;;;;;;;;;5046252;28;20362;-68
2022/03/18 11:06:06;;;;;;;7.38;3.78;;;;;;;;;;5039992;28;20185;-67
2022/03/18 11:08:35;;;;;;;10.73;3.67;;;;;;;;;;5045398;28;20205;-68
2022/03/18 11:11:17;;;;;;;8.10;4.32;;;;;;;;;;5048422;28;20206;-68
2022/03/18 11:13:50;;;;;;;8.95;4.38;;;;;;;;;;5049338;28;20787;-67
2022/03/18 11:16:23;;;;;;;9.77;3.42;;;;;;;;;;5046934;28;20534;-68
2022/03/18 11:18:48;;;;;;;10.93;5.95;;;;;;;;;;5050278;28;20174;-67
2022/03/18 11:21:14;;;;;;;6.63;5.22;;;;;;;;;;5050339;28;20196;-67
2022/03/18 11:23:41;;;;;;;11.23;5.03;;;;;;;;;;5044548;28;20273;-68
2022/03/18 11:26:06;;;;;;;9.05;4.53;;;;;;;;;;5048247;28;20189;-68
2022/03/18 11:28:31;;;;;;;10.63;4.97;;;;;;;;;;5049881;28;20173;-68
2022/03/18 11:31:00;;;;;;;8.82;4.40;;;;;;;;;;5049171;28;20217;-68
2022/03/18 11:33:26;;;;;;;8.60;4.70;;;;;;;;;;5048787;28;20288;-67
2022/03/18 11:35:52;;;;;;;6.68;4.28;;;;;;;;;;5049903;28;20265;-68
2022/03/18 11:38:18;;;;;;;10.38;3.78;;;;;;;;;;5045122;28;20523;-68
2022/03/18 11:41:00;;;;;;;5.15;3.72;;;;;;;;;;5049371;28;20197;-68
2022/03/18 11:43:43;;;;;;;7.45;4.25;;;;;;;;;;5043834;28;20665;-68
2022/03/18 11:46:11;;;;;;;6.22;3.92;;;;;;;;;;5047927;28;20193;-68
2022/03/18 11:48:37;;;;;;;9.13;3.92;;;;;;;;;;5046343;28;20184;-68
2022/03/18 11:51:21;;;;;;;12.05;4.22;;;;;;;;;;5047370;28;20197;-68
2022/03/18 11:53:48;;;;;;;6.15;3.25;;;;;;;;;;5046685;28;20234;-68
2022/03/18 11:56:13;;;;;;;8.77;4.53;;;;;;;;;;5047421;28;20173;-68
2022/03/18 11:58:39;;;;;;;7.97;4.07;;;;;;;;;;5051063;28;20174;-68
2022/03/18 12:01:04;;;;;;;8.33;4.33;;;;;;;;;;5046214;28;20225;-68
2022/03/18 12:03:30;;;;;;;4.85;3.53;;;;;;;;;;5049732;28;20427;-67
2022/03/18 12:05:57;;;;;;;7.38;4.00;;;;;;;;;;5051485;28;20185;-68
2022/03/18 12:08:41;;;;;;;7.70;3.58;;;;;;;;;;5046989;28;20273;-68
2022/03/18 12:11:26;;;;;;;4.43;3.22;;;;;;;;;;5051352;28;20201;-68
2022/03/18 12:13:51;;;;;;;5.70;3.95;;;;;;;;;;5056731;28;20181;-67
2022/03/18 12:16:19;;;;;;;9.80;3.80;;;;;;;;;;5054492;28;20663;-68
2022/03/18 12:18:45;;;;;;;4.90;2.80;;;;;;;;;;5054556;28;20433;-68
2022/03/18 12:21:11;;;;;;;5.50;2.60;;;;;;;;;;5048919;28;20201;-67
2022/03/18 12:23:36;;;;;;;10.07;3.25;;;;;;;;;;5053229;28;20232;-67
2022/03/18 12:26:05;;;;;;;6.28;3.53;;;;;;;;;;5050318;28;21157;-68
2022/03/18 12:28:43;;;;;;;8.95;3.60;;;;;;;;;;5050563;28;20180;-68
2022/03/18 12:31:19;;;;;;;8.65;2.88;;;;;;;;;;5051104;28;20215;-68
2022/03/18 12:33:45;;;;;;;4.20;2.67;;;;;;;;;;5045516;28;20406;-68
2022/03/18 12:36:12;;;;;;;5.85;3.08;;;;;;;;;;5047154;28;20264;-68
2022/03/18 12:38:37;;;;;;;4.93;2.90;;;;;;;;;;5052008;28;20174;-68
2022/03/18 12:41:02;;;;;;;8.43;2.93;;;;;;;;;;5049206;28;20212;-68
2022/03/18 12:43:31;;;;;;;4.67;3.17;;;;;;;;;;5051498;28;20422;-67
2022/03/18 12:45:57;;;;;;;5.18;2.88;;;;;;;;;;5049851;28;21011;-68
2022/03/18 12:48:22;;;;;;;4.72;2.75;;;;;;;;;;5049933;28;20256;-68
2022/03/18 12:50:47;;;;;;;6.40;3.58;;;;;;;;;;5048021;28;20255;-68
2022/03/18 12:53:14;;;;;;;6.85;2.70;;;;;;;;;;5042620;28;20229;-68
2022/03/18 12:55:40;;;;;;;4.60;2.38;;;;;;;;;;5051422;28;20180;-67
2022/03/18 12:58:06;;;;;;;5.82;2.40;;;;;;;;;;5047217;28;20563;-67
2022/03/18 13:00:42;;;;;;;3.42;2.45;;;;;;;;;;5033400;28;20196;-67
2022/03/18 13:03:12;;;;;;;4.68;3.08;;;;;;;;;;5044309;28;20181;-67
2022/03/18 13:05:38;;;;;;;6.68;2.60;;;;;;;;;;5051711;28;20256;-68
2022/03/18 13:08:07;;;;;;;7.28;2.78;;;;;;;;;;5049967;28;20628;-68
2022/03/18 13:10:32;;;;;;;4.95;3.30;;;;;;;;;;5044919;28;20197;-67
2022/03/18 13:13:10;;;;;;;4.97;2.70;;;;;;;;;;5048448;28;20207;-67
2022/03/18 13:15:36;;;;;;;5.25;3.00;;;;;;;;;;5049097;28;20250;-68
2022/03/18 13:18:08;;;;;;;6.43;3.00;;;;;;;;;;5047318;28;20648;-67
2022/03/18 13:20:34;;;;;;;5.70;3.03;;;;;;;;;;5049727;28;20201;-68
2022/03/18 13:22:59;;;;;;;6.43;3.15;;;;;;;;;;5047757;28;20547;-68
2022/03/18 13:25:26;;;;;;;10.73;3.78;;;;;;;;;;5050725;28;20189;-68
2022/03/18 13:27:51;;;;;;;6.47;4.00;;;;;;;;;;5049707;28;20186;-67
2022/03/18 13:33:05;;;;;;;6.80;3.70;;;;;;;;;;5052017;28;20216;-67
2022/03/18 13:35:30;;;;;;;5.28;3.17;;;;;;;;;;5047724;28;20555;-68
2022/03/18 13:38:06;;;;;;;7.65;3.70;;;;;;;;;;5051292;28;20362;-67
2022/03/18 13:40:31;;;;;;;7.28;3.22;;;;;;;;;;5049615;28;20224;-68
2022/03/18 13:43:20;;;;;;;5.97;3.00;;;;;;;;;;5048167;28;20221;-68
2022/03/18 13:45:45;;;;;;;6.95;3.20;;;;;;;;;;5047089;28;20196;-68
2022/03/18 13:48:10;;;;;;;6.30;3.63;;;;;;;;;;5050193;28;20252;-68
2022/03/18 13:50:46;;;;;;;7.70;3.90;;;;;;;;;;5048635;28;20208;-68
2022/03/18 13:53:21;;;;;;;9.73;3.97;;;;;;;;;;5045616;28;20473;-68
2022/03/18 13:55:47;;;;;;;5.15;3.70;;;;;;;;;;5050332;28;20597;-68
2022/03/18 13:58:23;;;;;;;6.60;3.67;;;;;;;;;;5049421;28;20281;-68
2022/03/18 14:00:48;;;;;;;5.35;3.17;;;;;;;;;;5047934;28;20282;-68
2022/03/18 14:03:15;;;;;;;4.57;3.35;;;;;;;;;;5050328;28;20246;-68
2022/03/18 14:05:41;;;;;;;8.13;3.40;;;;;;;;;;5048607;28;20678;-68
2022/03/18 14:08:07;;;;;;;6.32;3.60;;;;;;;;;;5050499;28;20276;-67
2022/03/18 14:10:42;;;;;;;4.70;3.15;;;;;;;;;;5049620;28;20597;-68
2022/03/18 14:13:12;;;;;;;6.68;3.70;;;;;;;;;;5049624;28;20297;-67
2022/03/18 14:15:41;;;;;;;6.03;3.95;;;;;;;;;;5049476;28;20303;-67
2022/03/18 14:18:10;;;;;;;7.95;3.53;;;;;;;;;;5048743;28;20204;-68
2022/03/18 14:20:57;;;;;;;6.32;3.60;;;;;;;;;;5051208;28;20192;-67
2022/03/18 14:23:22;;;;;;;4.82;3.35;;;;;;;;;;5043862;28;20170;-67
2022/03/18 14:25:48;;;;;;;6.82;3.17;;;;;;;;;;5050591;28;20208;-67
2022/03/18 14:28:17;;;;;;;8.80;3.35;;;;;;;;;;5049749;28;20185;-67
2022/03/18 14:30:42;;;;;;;6.75;3.60;;;;;;;;;;5047747;28;20212;-67
2022/03/18 14:33:07;;;;;;;7.20;4.10;;;;;;;;;;5049605;28;20202;-67
2022/03/18 14:35:32;;;;;;;5.78;3.65;;;;;;;;;;5050103;28;20173;-67
2022/03/18 14:37:58;;;;;;;4.27;3.43;;;;;;;;;;5048732;28;20615;-67
2022/03/18 14:40:24;;;;;;;9.57;3.67;;;;;;;;;;5048779;28;20450;-67
2022/03/18 14:42:49;;;;;;;6.43;3.90;;;;;;;;;;5047323;28;20265;-66
2022/03/18 14:45:15;;;;;;;4.43;2.67;;;;;;;;;;5049307;28;20264;-67
2022/03/18 14:47:40;;;;;;;3.50;2.40;;;;;;;;;;5048687;28;20205;-67
2022/03/18 14:50:06;;;;;;;5.80;2.97;;;;;;;;;;5050038;28;20209;-67
2022/03/18 14:52:31;;;;;;;5.57;2.95;;;;;;;;;;5048581;28;20213;-66
2022/03/18 14:57:41;;;;;;;8.13;3.00;;;;;;;;;;5047420;28;20670;-66